Time;durP1;ratioP1;P1;durP2;ratioP2;P2;SDS_P1;SDS_P2;PMS_P1;PMS_P2;Temp;Humidity;BMP_temperature;BMP_pressure;BME280_temperature;BME280_humidity;BME280_pressure;Samples;Min_cycle;Max_cycle;Signal;HPM_P1;HPM_P2
2022/12/21 00:00:30;;;;;;;19.00;11.98;;;;;;;8.04;81.40;100430.22;4151107;28;20041;-68
2022/12/21 00:02:34;;;;;;;19.42;12.95;;;;;;;8.00;82.20;100430.09;4148003;28;20041;-69
2022/12/21 00:04:37;;;;;;;18.45;13.38;;;;;;;8.03;82.40;100425.00;4160458;28;20041;-68
2022/12/21 00:06:40;;;;;;;17.70;13.60;;;;;;;8.11;82.38;100427.78;4163179;28;20049;-68
2022/12/21 00:08:45;;;;;;;16.35;12.23;;;;;;;8.15;82.26;100425.28;4147951;28;20037;-68
2022/12/21 00:10:47;;;;;;;19.38;12.20;;;;;;;8.06;82.67;100417.31;4146739;28;20057;-67
2022/12/21 00:12:50;;;;;;;16.95;10.90;;;;;;;8.07;82.23;100424.22;4147509;28;20042;-68
2022/12/21 00:14:53;;;;;;;16.08;11.57;;;;;;;8.10;82.42;100426.03;4147527;28;20034;-68
2022/12/21 00:16:57;;;;;;;16.08;11.55;;;;;;;8.18;82.35;100415.00;4156511;28;20412;-68
2022/12/21 00:19:02;;;;;;;15.05;10.20;;;;;;;8.20;82.51;100415.91;4162490;28;20099;-68
2022/12/21 00:21:08;;;;;;;17.67;10.65;;;;;;;8.24;82.43;100416.88;4140455;28;20112;-68
2022/12/21 00:23:10;;;;;;;15.70;11.15;;;;;;;8.31;82.13;100408.41;4158840;28;20499;-68
2022/12/21 00:25:13;;;;;;;14.38;9.93;;;;;;;8.32;82.26;100415.34;4162619;28;20045;-69
2022/12/21 00:27:16;;;;;;;16.77;12.13;;;;;;;8.30;82.48;100414.41;4164216;28;20053;-68
2022/12/21 00:29:19;;;;;;;15.55;11.48;;;;;;;8.33;82.31;100409.28;4161930;28;20036;-68
2022/12/21 00:31:24;;;;;;;15.20;9.35;;;;;;;8.30;82.72;100409.22;4156625;28;20033;-68
2022/12/21 00:33:30;;;;;;;16.25;9.27;;;;;;;8.27;82.84;100422.09;4145962;28;20100;-68
2022/12/21 00:35:33;;;;;;;16.10;11.38;;;;;;;8.39;82.63;100406.84;4146144;28;20040;-68
2022/12/21 00:37:36;;;;;;;16.10;11.43;;;;;;;8.35;82.71;100415.41;4147120;28;20034;-68
2022/12/21 00:39:39;;;;;;;15.10;9.75;;;;;;;8.35;82.45;100411.91;4160914;28;20137;-68
2022/12/21 00:41:43;;;;;;;19.88;12.45;;;;;;;8.33;82.70;100418.78;4154864;28;20129;-71
2022/12/21 00:43:49;;;;;;;17.88;11.75;;;;;;;8.37;82.75;100416.28;4162190;28;20104;-68
2022/12/21 00:45:52;;;;;;;15.77;11.13;;;;;;;8.36;82.91;100416.25;4152372;28;20041;-68
2022/12/21 00:47:55;;;;;;;15.52;11.32;;;;;;;8.33;82.78;100414.47;4147922;28;20041;-68
2022/12/21 00:50:00;;;;;;;15.27;11.43;;;;;;;8.32;82.95;100412.75;4155514;28;20129;-68
2022/12/21 00:52:02;;;;;;;14.85;12.27;;;;;;;8.28;83.13;100417.78;4159974;28;20511;-68
2022/12/21 00:54:05;;;;;;;22.70;12.63;;;;;;;8.33;82.74;100416.19;4149945;28;20048;-68
2022/12/21 00:56:09;;;;;;;19.35;11.80;;;;;;;8.35;82.88;100417.09;4147625;28;20046;-68
2022/12/21 00:58:12;;;;;;;16.80;12.32;;;;;;;8.30;82.62;100409.22;4142992;28;20052;-68
2022/12/21 01:00:15;;;;;;;18.23;12.85;;;;;;;8.43;82.37;100412.09;4149431;28;20049;-68
2022/12/21 01:02:18;;;;;;;16.45;11.52;;;;;;;8.39;82.57;100418.91;4163030;28;20033;-67
2022/12/21 01:04:22;;;;;;;19.27;12.30;;;;;;;8.32;82.83;100420.53;4166540;28;20280;-68
2022/12/21 01:06:28;;;;;;;19.67;12.27;;;;;;;8.43;82.54;100420.75;4146305;28;20586;-68
2022/12/21 01:08:31;;;;;;;16.80;11.35;;;;;;;8.39;82.45;100424.09;4161993;28;20029;-68
2022/12/21 01:10:35;;;;;;;18.92;12.20;;;;;;;8.36;82.38;100424.91;4161699;28;20116;-68
2022/12/21 01:12:37;;;;;;;17.55;12.40;;;;;;;8.43;82.45;100430.25;4151871;28;20041;-68
2022/12/21 01:14:40;;;;;;;19.65;11.38;;;;;;;8.34;82.61;100418.81;4177866;28;20120;-68
2022/12/21 01:16:44;;;;;;;15.82;10.32;;;;;;;8.28;83.49;100431.63;4160824;28;20045;-68
2022/12/21 01:18:47;;;;;;;15.25;10.93;;;;;;;8.30;83.66;100419.59;4146123;28;20558;-68
2022/12/21 01:20:54;;;;;;;13.68;10.60;;;;;;;8.49;83.37;100427.81;4146704;28;20034;-68
2022/12/21 01:22:58;;;;;;;16.55;11.57;;;;;;;8.44;83.55;100416.44;4158329;28;20456;-68
2022/12/21 01:25:01;;;;;;;18.42;11.85;;;;;;;8.45;83.27;100421.66;4160002;28;20045;-68
2022/12/21 01:27:04;;;;;;;14.80;10.98;;;;;;;8.53;83.41;100419.28;4165922;28;20558;-68
2022/12/21 01:29:07;;;;;;;16.58;11.23;;;;;;;8.49;83.54;100420.03;4153222;28;20069;-67
2022/12/21 01:31:11;;;;;;;12.05;9.40;;;;;;;8.43;83.87;100418.16;4165760;28;20037;-68
2022/12/21 01:33:15;;;;;;;18.00;11.63;;;;;;;8.50;83.44;100429.56;4164685;28;20042;-68
2022/12/21 01:35:19;;;;;;;17.02;13.25;;;;;;;8.50;83.70;100426.97;4162079;28;20034;-70
2022/12/21 01:37:22;;;;;;;13.63;9.70;;;;;;;8.45;84.29;100428.59;4149109;28;20038;-69
2022/12/21 01:39:26;;;;;;;16.10;11.18;;;;;;;8.48;84.10;100423.47;4139692;28;20041;-68
2022/12/21 01:41:29;;;;;;;14.10;11.27;;;;;;;8.55;83.98;100422.75;4164519;28;20496;-68
2022/12/21 01:43:45;;;;;;;21.92;13.13;;;;;;;8.55;83.82;100420.16;4163097;28;20037;-68
2022/12/21 01:45:50;;;;;;;;;;;;;;;8.43;84.27;100425.06;4150161;28;20236;-68
2022/12/21 01:47:57;;;;;;;18.02;10.73;;;;;;;8.44;84.15;100419.94;4180723;28;20011;-68
2022/12/21 01:50:04;;;;;;;16.80;13.15;;;;;;;8.48;84.29;100423.47;4162447;28;20041;-68
2022/12/21 01:52:12;;;;;;;14.80;12.20;;;;;;;8.54;84.10;100421.00;4164285;28;20040;-68
2022/12/21 01:54:18;;;;;;;18.50;13.25;;;;;;;8.59;83.53;100419.41;4161027;28;20045;-68
2022/12/21 01:56:28;;;;;;;20.50;13.15;;;;;;;8.55;84.07;100412.41;4156048;28;20837;-69
2022/12/21 01:58:33;;;;;;;21.00;13.10;;;;;;;8.53;83.79;100416.69;4181034;28;20039;-68
2022/12/21 02:00:37;;;;;;;25.98;14.63;;;;;;;8.51;84.20;100407.97;4153917;28;20076;-68
2022/12/21 02:02:44;;;;;;;19.92;13.88;;;;;;;8.53;84.35;100411.50;4140078;28;20077;-68
2022/12/21 02:04:48;;;;;;;21.92;13.02;;;;;;;8.54;84.33;100418.41;4156427;28;20578;-69
2022/12/21 02:06:55;;;;;;;20.13;14.65;;;;;;;8.50;84.58;100416.63;4161819;28;20033;-68
2022/12/21 02:09:00;;;;;;;23.77;15.52;;;;;;;8.53;84.65;100408.91;4165848;28;20048;-68
2022/12/21 02:11:03;;;;;;;;;;;;;;;8.51;84.66;100406.28;4165836;28;20043;-68
2022/12/21 02:13:11;;;;;;;14.23;10.57;;;;;;;8.48;84.82;100410.50;4154659;28;19925;-68
2022/12/21 02:15:14;;;;;;;17.48;12.35;;;;;;;8.55;84.89;100399.44;4159797;28;20041;-67
2022/12/21 02:17:29;;;;;;;21.15;13.32;;;;;;;8.54;84.79;100397.69;4144084;28;20057;-68
2022/12/21 02:20:05;;;;;;;17.25;13.45;;;;;;;8.56;84.68;100390.84;4164765;28;20443;-68
2022/12/21 02:22:13;;;;;;;;;;;;;;;8.50;84.65;100399.34;4122956;28;20140;-67
2022/12/21 02:24:42;;;;;;;15.73;12.00;;;;;;;8.58;84.82;100396.91;4143399;28;19921;-68
2022/12/21 02:27:02;;;;;;;17.05;12.32;;;;;;;8.55;84.85;100400.31;4165274;28;20044;-68
2022/12/21 02:29:34;;;;;;;18.27;12.93;;;;;;;8.58;84.83;100403.81;4164778;28;20041;-68
2022/12/21 02:31:50;;;;;;;16.60;11.85;;;;;;;8.60;84.81;100404.72;4159874;28;20061;-68
2022/12/21 02:34:06;;;;;;;20.48;13.48;;;;;;;8.68;84.64;100401.44;4153009;28;20480;-68
2022/12/21 02:36:26;;;;;;;17.05;13.20;;;;;;;8.74;84.58;100393.78;4159037;28;20590;-68
2022/12/21 02:38:40;;;;;;;14.23;10.65;;;;;;;8.64;84.80;100399.63;4147907;28;20060;-68
2022/12/21 02:40:51;;;;;;;17.83;13.05;;;;;;;8.65;85.13;100406.56;4163039;28;20484;-68
2022/12/21 02:45:35;;;;;;;17.90;12.20;;;;;;;8.65;85.27;100401.38;4160716;28;20135;-68
2022/12/21 02:47:47;;;;;;;17.17;12.70;;;;;;;8.62;85.41;100390.94;4155367;28;20068;-68
2022/12/21 02:49:54;;;;;;;18.30;11.80;;;;;;;8.67;85.87;100386.75;4147917;28;20038;-68
2022/12/21 02:52:05;;;;;;;18.08;11.73;;;;;;;8.79;85.66;100393.00;4160863;28;20111;-68
2022/12/21 02:54:09;;;;;;;18.90;12.25;;;;;;;8.80;85.62;100389.59;4153501;28;20072;-68
2022/12/21 02:56:14;;;;;;;14.38;10.68;;;;;;;8.84;85.51;100381.03;4164229;28;20503;-69
2022/12/21 02:58:22;;;;;;;13.18;9.45;;;;;;;8.82;85.41;100383.59;4159716;28;20065;-68
2022/12/21 03:00:25;;;;;;;;;;;;;;;8.90;85.25;100375.97;4148229;28;20084;-68
2022/12/21 03:03:47;;;;;;;18.20;10.75;;;;;;;8.86;85.04;100382.81;4147888;28;19925;-68
2022/12/21 03:05:40;;;;;;;14.20;10.43;;;;;;;8.85;85.14;100385.38;4155184;28;20038;-68
2022/12/21 03:07:56;;;;;;;15.75;9.75;;;;;;;8.84;85.34;100386.22;4146660;28;20153;-68
2022/12/21 03:10:09;;;;;;;16.20;12.50;;;;;;;8.93;85.20;100381.22;4160955;28;20038;-67
2022/12/21 03:12:20;;;;;;;14.18;10.73;;;;;;;8.96;84.94;100376.06;4155989;28;20085;-67
2022/12/21 03:14:43;;;;;;;15.63;11.65;;;;;;;9.00;85.09;100372.69;4131011;28;20058;-68
2022/12/21 03:16:50;;;;;;;17.80;9.93;;;;;;;9.01;84.63;100369.28;4163032;28;20034;-67
2022/12/21 03:19:03;;;;;;;15.48;11.48;;;;;;;8.87;85.09;100375.91;4154223;28;20064;-68
2022/12/21 03:21:12;;;;;;;14.90;10.27;;;;;;;8.93;85.15;100363.06;4167639;28;20072;-67
2022/12/21 03:23:22;;;;;;;14.45;11.77;;;;;;;8.89;85.66;100354.34;4156070;28;20038;-67
2022/12/21 03:25:29;;;;;;;16.98;10.10;;;;;;;8.90;85.24;100369.03;4147132;28;20045;-67
2022/12/21 03:27:36;;;;;;;16.30;10.02;;;;;;;8.94;85.04;100362.22;4159159;28;20530;-67
2022/12/21 03:29:45;;;;;;;21.40;12.93;;;;;;;8.94;85.12;100366.53;4163567;28;20507;-67
2022/12/21 03:31:55;;;;;;;17.65;13.13;;;;;;;8.96;84.83;100364.84;4158871;28;20492;-67
2022/12/21 03:34:05;;;;;;;10.48;8.25;;;;;;;8.81;85.59;100366.28;4157369;28;20042;-67
2022/12/21 03:36:14;;;;;;;18.20;10.63;;;;;;;8.89;85.61;100353.47;4163531;28;20055;-67
2022/12/21 03:38:22;;;;;;;17.70;10.82;;;;;;;8.97;85.45;100364.88;4164744;28;20052;-67
2022/12/21 03:40:26;;;;;;;17.60;11.38;;;;;;;8.93;85.08;100363.06;4164709;28;20095;-67
2022/12/21 03:42:35;;;;;;;14.52;10.32;;;;;;;8.94;85.22;100357.03;4158902;28;20380;-67
2022/12/21 03:44:41;;;;;;;14.02;10.07;;;;;;;8.95;85.26;100361.38;4164068;28;20499;-67
2022/12/21 03:46:51;;;;;;;15.50;10.95;;;;;;;8.95;85.22;100360.50;4158198;28;20563;-67
2022/12/21 03:48:57;;;;;;;13.48;10.55;;;;;;;8.99;85.31;100365.75;4155784;28;20423;-67
2022/12/21 03:51:06;;;;;;;16.58;9.77;;;;;;;9.03;85.44;100366.72;4159367;28;20100;-67
2022/12/21 03:53:15;;;;;;;16.02;11.35;;;;;;;9.09;85.02;100365.09;4163791;28;20045;-67
2022/12/21 03:55:22;;;;;;;17.83;10.77;;;;;;;9.06;85.13;100358.97;4153905;28;20149;-66
2022/12/21 03:57:25;;;;;;;14.00;8.98;;;;;;;9.03;85.31;100358.94;4157158;28;20041;-66
2022/12/21 03:59:28;;;;;;;16.60;11.27;;;;;;;9.05;84.96;100365.00;4161393;28;20048;-66
2022/12/21 04:01:39;;;;;;;17.50;10.50;;;;;;;9.11;84.90;100354.75;4163647;28;20077;-68
2022/12/21 04:03:44;;;;;;;14.45;9.85;;;;;;;9.06;84.79;100356.38;4163653;28;20033;-68
2022/12/21 04:05:51;;;;;;;16.98;11.30;;;;;;;9.01;85.31;100358.91;4156481;28;20042;-67
2022/12/21 04:07:56;;;;;;;13.63;9.38;;;;;;;9.05;85.12;100357.22;4153277;28;20463;-67
2022/12/21 04:10:01;;;;;;;17.48;10.35;;;;;;;9.04;85.37;100353.78;4153880;28;20042;-67
2022/12/21 04:14:28;;;;;;;12.65;8.82;;;;;;;9.11;85.50;100341.78;4163657;28;20045;-67
2022/12/21 04:16:31;;;;;;;12.55;8.13;;;;;;;9.15;85.78;100346.19;4162912;28;20044;-67
2022/12/21 04:20:54;;;;;;;11.95;8.00;;;;;;;9.16;85.95;100341.88;4154840;28;20462;-67
2022/12/21 04:28:10;;;;;;;10.57;6.38;;;;;;;9.14;86.27;100338.38;4089478;29;20037;-67
2022/12/21 04:30:33;;;;;;;10.65;7.53;;;;;;;9.14;86.36;100346.16;4130130;28;20049;-67
2022/12/21 04:32:35;;;;;;;13.20;6.22;;;;;;;9.21;86.43;100348.91;4161802;28;20133;-67
2022/12/21 04:34:38;;;;;;;11.57;7.88;;;;;;;9.23;86.40;100343.75;4163641;28;20042;-68
2022/12/21 04:39:03;;;;;;;9.35;7.28;;;;;;;9.20;85.74;100346.25;4155130;28;20076;-68
2022/12/21 04:41:06;;;;;;;13.95;8.27;;;;;;;9.17;86.19;100341.91;4161745;28;20041;-67
2022/12/21 04:43:09;;;;;;;12.75;7.47;;;;;;;9.23;85.45;100349.78;4153543;28;20072;-68
2022/12/21 04:45:12;;;;;;;13.02;7.88;;;;;;;9.20;85.70;100354.03;4159173;28;20045;-68
2022/12/21 04:47:15;;;;;;;12.05;7.15;;;;;;;9.21;86.25;100350.59;4158576;28;20426;-68
2022/12/21 04:49:17;;;;;;;11.70;8.13;;;;;;;9.30;85.42;100361.16;4153886;28;20065;-68
2022/12/21 04:51:23;;;;;;;12.27;8.77;;;;;;;9.35;85.77;100358.66;4156097;28;20029;-68
2022/12/21 04:53:26;;;;;;;14.20;8.02;;;;;;;9.34;85.53;100352.56;4173742;28;20052;-69
2022/12/21 04:55:30;;;;;;;12.18;8.25;;;;;;;9.37;85.71;100357.81;4163778;28;20037;-68
2022/12/21 04:57:33;;;;;;;12.15;7.72;;;;;;;9.40;85.00;100344.91;4162607;28;20380;-69
2022/12/21 04:59:36;;;;;;;8.98;7.00;;;;;;;9.37;85.63;100352.59;4153110;28;20081;-68
2022/12/21 05:01:39;;;;;;;9.98;6.32;;;;;;;9.24;85.80;100361.03;4161832;28;20037;-68
2022/12/21 05:03:50;;;;;;;9.60;6.55;;;;;;;9.28;85.91;100357.66;4159602;28;20037;-69
2022/12/21 05:05:53;;;;;;;12.17;7.03;;;;;;;9.29;85.75;100359.41;4160333;28;20042;-69
2022/12/21 05:07:56;;;;;;;8.32;6.63;;;;;;;9.36;85.53;100361.25;4166985;28;20068;-69
2022/12/21 05:09:59;;;;;;;11.40;7.57;;;;;;;9.40;84.81;100357.00;4166192;28;20046;-68
2022/12/21 05:12:03;;;;;;;8.65;5.80;;;;;;;9.36;84.84;100356.06;4165461;28;20103;-68
2022/12/21 05:14:06;;;;;;;10.02;7.35;;;;;;;9.34;85.32;100360.34;4160480;28;20072;-69
2022/12/21 05:16:11;;;;;;;9.15;6.65;;;;;;;9.28;85.27;100359.38;4162231;28;20042;-68
2022/12/21 05:18:14;;;;;;;11.80;8.23;;;;;;;9.33;85.45;100350.84;4154650;28;20037;-68
2022/12/21 05:20:17;;;;;;;9.93;7.25;;;;;;;9.40;85.26;100354.41;4152448;28;20045;-78
2022/12/21 05:22:21;;;;;;;8.52;6.35;;;;;;;9.35;85.35;100359.50;4156285;28;20045;-78
2022/12/21 05:24:24;;;;;;;8.65;6.90;;;;;;;9.31;85.58;100356.84;4159629;28;20037;-78
2022/12/21 05:26:27;;;;;;;9.82;7.00;;;;;;;9.29;85.84;100359.41;4160056;28;20041;-78
2022/12/21 05:28:32;;;;;;;13.50;8.10;;;;;;;9.31;86.06;100347.31;4148721;28;20108;-79
2022/12/21 05:30:35;;;;;;;11.68;7.60;;;;;;;9.23;86.35;100343.75;4162304;28;20037;-79
2022/12/21 05:32:38;;;;;;;14.60;8.00;;;;;;;9.27;86.08;100342.91;4162419;28;20045;-78
2022/12/21 05:34:40;;;;;;;9.48;6.93;;;;;;;9.36;86.37;100340.50;4149495;28;20128;-79
2022/12/21 05:36:43;;;;;;;10.63;6.78;;;;;;;9.29;86.01;100340.34;4154965;28;20095;-79
2022/12/21 05:38:46;;;;;;;9.70;7.10;;;;;;;9.26;86.57;100341.19;4165998;28;20044;-78
2022/12/21 05:40:50;;;;;;;8.55;6.55;;;;;;;9.35;86.55;100345.66;4162932;28;20047;-76
2022/12/21 05:42:53;;;;;;;10.30;7.32;;;;;;;9.36;85.81;100339.63;4140526;28;20491;-76
2022/12/21 05:44:57;;;;;;;10.10;6.80;;;;;;;9.38;86.04;100336.22;4158829;28;20045;-76
2022/12/21 05:47:01;;;;;;;7.97;5.88;;;;;;;9.34;85.93;100334.41;4158399;28;20044;-76
2022/12/21 05:49:04;;;;;;;9.18;6.93;;;;;;;9.39;85.91;100330.19;4157468;28;20042;-76
2022/12/21 05:51:08;;;;;;;10.02;6.38;;;;;;;9.39;85.86;100319.81;4156872;28;20132;-76
2022/12/21 05:53:11;;;;;;;13.25;7.30;;;;;;;9.37;85.58;100313.69;4157746;28;20080;-76
2022/12/21 05:55:16;;;;;;;11.85;7.05;;;;;;;9.35;85.84;100315.41;4158819;28;20060;-76
2022/12/21 05:57:19;;;;;;;9.52;6.85;;;;;;;9.36;85.68;100308.47;4154248;28;20503;-77
2022/12/21 05:59:21;;;;;;;9.52;6.95;;;;;;;9.46;85.76;100314.72;4155437;28;20037;-78
2022/12/21 06:01:26;;;;;;;11.77;7.07;;;;;;;9.46;85.42;100309.50;4156013;28;20026;-76
2022/12/21 06:03:29;;;;;;;9.57;6.75;;;;;;;9.37;85.51;100302.44;4156078;28;20543;-77
2022/12/21 06:05:34;;;;;;;12.70;6.47;;;;;;;9.39;85.93;100304.22;4157158;28;20073;-76
2022/12/21 06:07:37;;;;;;;8.10;5.82;;;;;;;9.49;86.04;100302.66;4152822;28;20038;-77
2022/12/21 06:09:40;;;;;;;9.77;6.45;;;;;;;9.49;86.06;100302.66;4155722;28;20518;-76
2022/12/21 06:11:43;;;;;;;10.77;6.35;;;;;;;9.41;86.11;100306.84;4159620;28;20487;-78
2022/12/21 06:13:46;;;;;;;10.70;6.80;;;;;;;9.39;86.10;100300.78;4155043;28;20038;-76
2022/12/21 06:15:49;;;;;;;12.30;7.18;;;;;;;9.53;86.68;100303.56;4163063;28;20056;-77
2022/12/21 06:17:54;;;;;;;10.57;6.10;;;;;;;9.53;86.17;100311.38;4164554;28;20045;-77
2022/12/21 06:20:07;;;;;;;8.20;5.40;;;;;;;9.54;85.65;100302.75;4163637;28;20092;-76
2022/12/21 06:22:09;;;;;;;10.07;6.30;;;;;;;9.55;85.74;100299.28;4158472;28;20034;-77
2022/12/21 06:24:12;;;;;;;8.27;5.32;;;;;;;9.49;86.13;100312.16;4165275;28;20506;-77
2022/12/21 06:26:17;;;;;;;10.18;6.03;;;;;;;9.54;86.02;100318.31;4163629;28;20045;-76
2022/12/21 06:28:20;;;;;;;11.02;5.57;;;;;;;9.55;86.46;100322.63;4149289;28;20040;-76
2022/12/21 06:30:23;;;;;;;7.32;5.45;;;;;;;9.50;86.51;100313.91;4155530;28;20380;-77
2022/12/21 06:32:26;;;;;;;11.02;6.40;;;;;;;9.51;86.37;100318.25;4153632;28;20044;-77
2022/12/21 06:34:30;;;;;;;8.80;5.97;;;;;;;9.55;86.68;100314.84;4154151;28;20037;-77
2022/12/21 06:36:33;;;;;;;11.75;6.30;;;;;;;9.66;86.26;100309.84;4160907;28;20044;-77
2022/12/21 06:38:36;;;;;;;7.75;5.03;;;;;;;9.63;85.52;100313.25;4163269;28;20124;-78
2022/12/21 06:40:39;;;;;;;9.77;6.38;;;;;;;9.72;85.80;100318.56;4165398;28;20045;-77
2022/12/21 06:42:42;;;;;;;8.23;6.07;;;;;;;9.76;85.03;100314.31;4150903;28;20053;-77
2022/12/21 06:44:45;;;;;;;9.93;6.07;;;;;;;9.72;85.49;100318.56;4154261;28;20041;-75
2022/12/21 06:46:48;;;;;;;9.00;5.25;;;;;;;9.67;85.43;100309.88;4159176;28;20116;-76
2022/12/21 06:48:51;;;;;;;8.07;5.85;;;;;;;9.69;85.10;100322.88;4164091;28;20049;-76
2022/12/21 06:50:56;;;;;;;7.50;5.70;;;;;;;9.83;84.76;100326.53;4149841;28;20080;-75
2022/12/21 06:52:59;;;;;;;10.15;5.45;;;;;;;9.85;85.25;100329.16;4176807;28;20044;-75
2022/12/21 06:55:02;;;;;;;9.90;5.68;;;;;;;9.77;84.79;100331.66;4176395;28;20135;-76
2022/12/21 06:57:05;;;;;;;9.95;6.03;;;;;;;9.78;84.58;100333.38;4171992;28;20503;-76
2022/12/21 06:59:08;;;;;;;12.13;5.82;;;;;;;9.73;85.13;100335.91;4172366;28;20033;-76
2022/12/21 07:01:14;;;;;;;12.35;5.65;;;;;;;9.79;85.23;100333.41;4176751;28;20080;-77
2022/12/21 07:03:17;;;;;;;7.80;4.95;;;;;;;9.82;84.94;100336.91;4166775;28;20041;-77
2022/12/21 07:05:19;;;;;;;9.80;6.22;;;;;;;9.95;84.50;100333.63;4186977;28;20049;-77
2022/12/21 07:07:23;;;;;;;9.50;5.03;;;;;;;9.98;84.07;100341.47;4172353;28;20038;-77
2022/12/21 07:09:26;;;;;;;8.80;4.95;;;;;;;9.88;84.29;100337.84;4170765;28;20053;-77
2022/12/21 07:11:30;;;;;;;9.02;5.22;;;;;;;9.89;84.36;100339.63;4175032;28;20083;-77
2022/12/21 07:13:35;;;;;;;10.15;5.63;;;;;;;9.96;84.20;100338.00;4170052;28;20128;-77
2022/12/21 07:15:37;;;;;;;;;;;;;;;9.91;84.17;100350.03;4157748;28;20037;-77
2022/12/21 07:17:40;;;;;;;10.73;6.03;;;;;;;9.81;84.51;100349.00;4169119;28;19921;-77
2022/12/21 07:19:44;;;;;;;7.75;5.32;;;;;;;9.82;84.61;100349.91;4174299;28;20033;-77
2022/12/21 07:21:46;;;;;;;9.65;6.03;;;;;;;9.90;84.59;100345.66;4178839;28;20403;-77
2022/12/21 07:23:51;;;;;;;7.78;4.97;;;;;;;9.83;85.22;100355.09;4168841;28;20046;-78
2022/12/21 07:25:54;;;;;;;9.60;5.55;;;;;;;9.98;84.88;100351.00;4164755;28;20131;-77
2022/12/21 07:27:57;;;;;;;8.40;5.43;;;;;;;9.90;84.78;100356.06;4174805;28;20076;-78
2022/12/21 07:30:00;;;;;;;7.25;5.65;;;;;;;9.79;84.92;100361.09;4189094;28;20090;-78
2022/12/21 07:32:03;;;;;;;9.35;5.93;;;;;;;9.85;84.75;100360.31;4171554;28;20026;-78
2022/12/21 07:34:06;;;;;;;11.70;5.93;;;;;;;9.89;85.59;100357.78;4176309;28;20045;-77
2022/12/21 07:36:10;;;;;;;9.43;5.75;;;;;;;9.95;84.72;100362.22;4168870;28;20422;-77
2022/12/21 07:38:13;;;;;;;12.32;6.45;;;;;;;9.88;85.30;100361.22;4170040;28;20609;-77
2022/12/21 07:40:18;;;;;;;10.48;6.10;;;;;;;9.85;85.25;100365.50;4156112;28;20139;-77
2022/12/21 07:42:21;;;;;;;15.40;7.47;;;;;;;9.75;85.14;100370.56;4168524;28;20487;-77
2022/12/21 07:44:40;;;;;;;10.25;7.10;;;;;;;9.81;85.57;100374.09;4169285;28;20049;-77
2022/12/21 07:46:51;;;;;;;13.60;7.70;;;;;;;9.76;85.43;100380.09;4172219;28;20056;-77
2022/12/21 07:48:57;;;;;;;13.57;6.75;;;;;;;9.76;86.08;100382.69;4172987;28;20037;-77
2022/12/21 07:50:59;;;;;;;7.55;5.30;;;;;;;9.73;86.14;100385.22;4185214;28;20414;-77
2022/12/21 07:53:03;;;;;;;10.55;7.43;;;;;;;9.82;85.71;100383.66;4171391;28;20033;-77
2022/12/21 07:55:06;;;;;;;10.10;6.20;;;;;;;9.81;85.65;100381.88;4172982;28;20180;-77
2022/12/21 07:57:10;;;;;;;10.15;6.10;;;;;;;9.85;85.25;100387.16;4171443;28;20052;-77
2022/12/21 07:59:13;;;;;;;9.45;5.63;;;;;;;9.79;85.49;100380.13;4171795;28;20570;-76
2022/12/21 08:01:18;;;;;;;9.77;6.80;;;;;;;9.82;85.21;100368.06;4173228;28;20487;-77
2022/12/21 08:03:21;;;;;;;10.85;6.75;;;;;;;9.85;85.49;100371.56;4159933;28;20080;-76
2022/12/21 08:05:24;;;;;;;10.63;7.32;;;;;;;9.88;85.04;100381.13;4174849;28;20037;-77
2022/12/21 08:07:27;;;;;;;9.38;4.93;;;;;;;9.76;85.69;100384.41;4168163;28;20037;-76
2022/12/21 08:09:29;;;;;;;8.80;6.97;;;;;;;9.81;85.29;100384.47;4168080;28;20474;-76
2022/12/21 08:11:33;;;;;;;8.68;6.15;;;;;;;9.78;85.71;100378.41;4168335;28;20517;-78
2022/12/21 08:13:37;;;;;;;9.55;5.50;;;;;;;9.76;86.07;100387.88;4173852;28;20120;-76
2022/12/21 08:15:40;;;;;;;9.77;6.57;;;;;;;9.80;85.48;100386.22;4173821;28;20033;-75
2022/12/21 08:17:43;;;;;;;9.93;6.78;;;;;;;9.73;85.88;100387.81;4162742;28;20142;-76
2022/12/21 08:19:46;;;;;;;7.53;5.35;;;;;;;9.76;85.81;100389.59;4184754;28;20094;-75
2022/12/21 08:21:49;;;;;;;13.00;7.63;;;;;;;9.74;85.40;100387.00;4169201;28;20045;-76
2022/12/21 08:23:52;;;;;;;10.93;6.60;;;;;;;9.79;85.39;100381.88;4168197;28;20045;-75
2022/12/21 08:25:55;;;;;;;12.38;7.53;;;;;;;9.87;85.69;100376.78;4171538;28;20477;-75
2022/12/21 08:27:58;;;;;;;11.27;7.13;;;;;;;9.79;85.26;100387.06;4167272;28;20076;-75
2022/12/21 08:30:02;;;;;;;14.48;7.85;;;;;;;9.81;85.71;100389.69;4170624;28;20044;-76
2022/12/21 08:32:05;;;;;;;10.57;7.03;;;;;;;9.80;85.27;100383.63;4173303;28;20495;-75
2022/12/21 08:34:08;;;;;;;9.02;6.63;;;;;;;9.86;85.40;100383.72;4155976;28;20034;-75
2022/12/21 08:36:11;;;;;;;10.73;7.20;;;;;;;9.77;85.37;100394.81;4175737;28;20048;-76
2022/12/21 08:38:14;;;;;;;13.00;7.07;;;;;;;9.79;86.02;100398.31;4168109;28;20387;-76
2022/12/21 08:40:37;;;;;;;11.35;7.40;;;;;;;9.79;85.23;100387.91;4172359;28;20033;-75
2022/12/21 08:42:40;;;;;;;10.63;6.95;;;;;;;9.80;85.38;100383.63;4175482;28;20529;-76
2022/12/21 08:44:43;;;;;;;12.20;8.77;;;;;;;9.84;85.78;100390.63;4177139;28;20575;-75
2022/12/21 08:46:47;;;;;;;16.02;9.20;;;;;;;9.93;85.09;100387.28;4173132;28;20503;-75
2022/12/21 08:48:50;;;;;;;13.07;7.95;;;;;;;9.88;84.96;100397.59;4167917;28;20055;-75
2022/12/21 08:50:53;;;;;;;10.70;7.95;;;;;;;9.84;85.67;100394.91;4165482;28;20029;-75
2022/12/21 08:52:56;;;;;;;13.15;8.45;;;;;;;9.87;85.06;100385.47;4160781;28;20051;-76
2022/12/21 08:54:59;;;;;;;11.52;8.13;;;;;;;9.87;84.99;100394.97;4175993;28;20041;-76
2022/12/21 08:57:02;;;;;;;18.70;11.02;;;;;;;9.88;85.52;100394.97;4168412;28;20036;-75
2022/12/21 08:59:08;;;;;;;11.35;8.50;;;;;;;9.81;85.48;100395.72;4159326;28;20053;-75
2022/12/21 09:01:11;;;;;;;12.30;9.10;;;;;;;9.83;85.74;100390.56;4156445;28;20050;-75
2022/12/21 09:03:15;;;;;;;10.07;7.22;;;;;;;9.83;85.87;100390.56;4176754;28;20040;-75
2022/12/21 09:05:18;;;;;;;11.77;8.43;;;;;;;9.83;85.23;100393.16;4150680;28;20034;-75
2022/12/21 09:07:21;;;;;;;10.93;8.13;;;;;;;9.88;85.61;100402.78;4169861;28;20502;-76
2022/12/21 09:09:24;;;;;;;13.52;8.27;;;;;;;9.89;85.37;100388.94;4171545;28;20442;-75
2022/12/21 09:11:28;;;;;;;11.20;7.15;;;;;;;9.91;85.80;100394.16;4170013;28;20040;-76
2022/12/21 09:13:38;;;;;;;13.57;6.95;;;;;;;9.92;85.83;100395.94;4151074;28;20038;-77
2022/12/21 09:15:42;;;;;;;12.70;9.50;;;;;;;9.98;85.44;100398.59;4151950;28;20041;-76
2022/12/21 09:17:45;;;;;;;9.98;7.35;;;;;;;10.01;85.31;100397.78;4168259;28;20037;-76
2022/12/21 09:19:49;;;;;;;13.63;7.40;;;;;;;10.00;85.08;100394.31;4154636;28;20057;-77
2022/12/21 09:21:53;;;;;;;10.00;7.43;;;;;;;9.96;85.07;100401.19;4168556;28;20047;-76
2022/12/21 09:23:56;;;;;;;9.95;7.47;;;;;;;9.98;85.35;100397.75;4166387;28;20528;-76
2022/12/21 09:26:01;;;;;;;10.40;7.15;;;;;;;10.01;85.29;100401.25;4169303;28;20060;-76
2022/12/21 09:28:04;;;;;;;13.25;8.27;;;;;;;10.03;84.90;100409.06;4166904;28;20039;-76
2022/12/21 09:30:08;;;;;;;14.73;9.05;;;;;;;9.99;85.11;100415.94;4169127;28;20044;-76
2022/12/21 09:32:11;;;;;;;12.32;8.52;;;;;;;9.96;84.86;100413.31;4171296;28;20075;-76
2022/12/21 09:34:14;;;;;;;11.32;7.95;;;;;;;9.96;85.10;100423.69;4175354;28;20037;-76
2022/12/21 09:36:19;;;;;;;13.60;8.18;;;;;;;9.95;84.92;100420.19;4168826;28;20033;-76
2022/12/21 09:38:21;;;;;;;;;;;;;;;9.80;85.71;100430.34;4173182;28;20037;-76
2022/12/21 09:40:25;;;;;;;15.05;8.13;;;;;;;9.95;85.57;100422.81;4167729;28;20077;-76
2022/12/21 09:42:38;;;;;;;9.73;6.85;;;;;;;9.93;85.08;100421.06;4167111;28;20044;-76
2022/12/21 09:45:00;;;;;;;10.60;6.97;;;;;;;9.89;85.08;100414.91;4168068;28;20076;-76
2022/12/21 09:47:07;;;;;;;13.23;8.73;;;;;;;9.87;85.99;100420.94;4170900;28;20033;-76
2022/12/21 09:49:18;;;;;;;11.45;7.30;;;;;;;9.90;85.22;100420.97;4154898;28;20045;-76
2022/12/21 09:51:24;;;;;;;13.75;8.10;;;;;;;9.94;85.99;100427.97;4172190;28;20069;-77
2022/12/21 09:53:34;;;;;;;12.45;7.57;;;;;;;9.97;85.21;100417.63;4178960;28;20052;-76
2022/12/21 09:55:45;;;;;;;10.60;7.32;;;;;;;9.99;84.90;100425.44;4173115;28;20462;-76
2022/12/21 09:57:51;;;;;;;12.70;7.25;;;;;;;10.04;84.99;100422.06;4168897;28;20041;-76
2022/12/21 09:59:55;;;;;;;11.73;7.68;;;;;;;9.95;84.63;100429.72;4172595;28;20120;-76